Ewaterfrd, Pennsylvania
Current Conditions -  °F | °C
As of 3:53 PM on Sunday 23 Nov 2014 (Local Time) from KAOO Reporting Station
Clear Clear  
Wind Chill: 13°   Ceiling: Unl
Heat Index: 13°   Visibility: 10mi
Dew Point: -1°   Wind: 8mph
Humidity: 39%   Direction: 160°SSE
Pressure: 29.98"   Gusts: 20mph
Location:  40.3617°N, 77.6745°W
Report Text: KAOO 232053Z AUTO 16007G17KT 10SM CLR 13/M01 A2998 RMK AO2 SLP156 T01331006 57020
Loading
Personal Weather Stations






























Interactive Weather Map New forecast layout! Learn more

10-Day Weather Forecast

Advertisements
Track Severe Weather on mobile